Time;durP1;ratioP1;P1;durP2;ratioP2;P2;SDS_P1;SDS_P2;PMS_P1;PMS_P2;Temp;Humidity;BMP_temperature;BMP_pressure;BME280_temperature;BME280_humidity;BME280_pressure;Samples;Min_cycle;Max_cycle;Signal;HPM_P1;HPM_P2
2021/11/20 00:02:06;;;;;;;23.30;19.20;;;14.20;99.90;;;;;;5015635;28;20672;-76
2021/11/20 00:04:33;;;;;;;22.97;19.00;;;14.20;99.90;;;;;;5015045;28;20884;-75
2021/11/20 00:07:00;;;;;;;22.60;19.67;;;14.20;99.90;;;;;;5014932;28;20988;-75
2021/11/20 00:09:27;;;;;;;22.20;19.80;;;14.20;99.90;;;;;;5014734;28;20615;-75
2021/11/20 00:11:57;;;;;;;24.33;19.90;;;14.20;99.90;;;;;;5015534;28;20627;-75
2021/11/20 00:14:24;;;;;;;22.80;16.00;;;14.20;99.90;;;;;;5019468;28;20576;-75
2021/11/20 00:16:52;;;;;;;21.13;18.17;;;14.20;99.90;;;;;;5015664;28;20588;-76
2021/11/20 00:19:20;;;;;;;20.63;18.43;;;14.20;99.90;;;;;;5016819;28;20654;-75
2021/11/20 00:21:49;;;;;;;21.40;19.03;;;14.20;99.90;;;;;;5014133;28;20577;-76
2021/11/20 00:24:41;;;;;;;19.80;17.70;;;14.20;99.90;;;;;;5012218;28;20927;-75
2021/11/20 00:27:09;;;;;;;19.43;16.83;;;14.20;99.90;;;;;;4996012;28;20615;-75
2021/11/20 00:29:44;;;;;;;23.87;19.33;;;14.20;99.90;;;;;;5013780;28;20624;-75
2021/11/20 00:32:14;;;;;;;21.63;19.07;;;14.20;99.90;;;;;;4996455;28;20569;-75
2021/11/20 00:34:43;;;;;;;24.80;22.10;;;14.20;99.90;;;;;;5012393;28;20570;-75
2021/11/20 00:37:09;;;;;;;23.60;21.10;;;14.20;99.90;;;;;;5013596;28;20600;-75
2021/11/20 00:39:36;;;;;;;25.83;20.63;;;14.20;99.90;;;;;;5013848;28;20631;-76
2021/11/20 00:42:04;;;;;;;26.73;21.53;;;14.20;99.90;;;;;;4996303;28;20586;-75
2021/11/20 00:44:30;;;;;;;24.88;21.30;;;14.20;99.90;;;;;;5012493;28;20567;-75
2021/11/20 00:46:56;;;;;;;25.23;20.60;;;14.20;99.90;;;;;;5012697;28;20198;-75
2021/11/20 00:49:23;;;;;;;23.27;20.30;;;14.20;99.90;;;;;;5013804;28;20632;-75
2021/11/20 00:51:51;;;;;;;20.63;18.02;;;14.20;99.90;;;;;;5013322;28;20570;-76
2021/11/20 00:54:18;;;;;;;21.50;18.37;;;14.20;99.90;;;;;;4996588;28;20170;-75
2021/11/20 00:56:45;;;;;;;22.97;18.40;;;14.20;99.90;;;;;;5016581;28;20644;-76
2021/11/20 00:59:11;;;;;;;19.95;16.92;;;14.20;99.90;;;;;;4996266;28;20893;-75
2021/11/20 01:01:51;;;;;;;19.73;17.63;;;14.20;99.90;;;;;;5011601;28;20209;-75
2021/11/20 01:04:17;;;;;;;23.43;20.93;;;14.20;99.90;;;;;;4995749;28;20565;-74
2021/11/20 01:06:44;;;;;;;20.20;17.80;;;14.20;99.90;;;;;;4994825;28;20624;-75
2021/11/20 01:09:13;;;;;;;22.70;19.93;;;14.20;99.90;;;;;;5013198;28;20621;-75
2021/11/20 01:11:44;;;;;;;28.97;21.47;;;14.20;99.90;;;;;;4994943;28;20627;-75
2021/11/20 01:14:12;;;;;;;24.43;18.27;;;14.20;99.90;;;;;;4995407;28;20604;-76
2021/11/20 01:16:40;;;;;;;22.73;19.10;;;14.20;99.90;;;;;;4994640;28;20594;-75
2021/11/20 01:19:07;;;;;;;23.07;18.40;;;14.20;99.90;;;;;;4995718;28;20581;-75
2021/11/20 01:21:53;;;;;;;20.98;18.27;;;14.20;99.90;;;;;;5013008;28;20575;-76
2021/11/20 01:24:21;;;;;;;23.55;19.17;;;14.20;99.90;;;;;;4995364;28;20185;-75
2021/11/20 01:26:47;;;;;;;22.33;18.30;;;14.20;99.90;;;;;;4994561;28;20317;-75
2021/11/20 01:29:16;;;;;;;26.15;19.25;;;14.20;99.90;;;;;;4995540;28;20288;-76
2021/11/20 01:31:48;;;;;;;22.35;19.55;;;14.20;99.90;;;;;;4979833;28;20166;-76
2021/11/20 01:34:16;;;;;;;22.35;18.75;;;14.20;99.90;;;;;;4965099;28;20181;-76
2021/11/20 01:36:46;;;;;;;23.07;19.20;;;14.20;99.90;;;;;;4978717;28;20624;-76
2021/11/20 01:39:20;;;;;;;24.40;20.25;;;14.20;99.90;;;;;;4978597;28;20593;-76
2021/11/20 01:42:05;;;;;;;24.80;18.80;;;14.20;99.90;;;;;;4995616;28;20528;-76
2021/11/20 01:44:51;;;;;;;21.38;18.13;;;14.20;99.90;;;;;;4996051;28;20173;-76
2021/11/20 01:47:29;;;;;;;22.05;18.23;;;14.20;99.90;;;;;;4978376;28;20547;-76
2021/11/20 01:50:04;;;;;;;21.95;18.05;;;14.20;99.90;;;;;;4994730;28;20205;-76
2021/11/20 01:52:40;;;;;;;21.33;17.40;;;14.20;99.90;;;;;;4978749;28;20750;-76
2021/11/20 01:55:25;;;;;;;22.40;18.58;;;14.20;99.90;;;;;;4978410;28;20580;-76
2021/11/20 01:58:19;;;;;;;20.75;18.50;;;14.20;99.90;;;;;;4980343;28;20170;-76
2021/11/20 02:01:25;;;;;;;23.67;19.93;;;14.20;99.90;;;;;;4994571;28;20182;-75
2021/11/20 02:04:27;;;;;;;22.33;18.40;;;14.20;99.90;;;;;;4900347;29;20595;-75
2021/11/20 02:07:11;;;;;;;23.23;19.17;;;14.20;99.90;;;;;;4994640;28;20820;-76
2021/11/20 02:09:47;;;;;;;21.55;18.40;;;14.20;99.90;;;;;;4998566;28;20664;-76
2021/11/20 02:12:32;;;;;;;22.92;18.80;;;14.20;99.90;;;;;;4994875;28;20623;-77
2021/11/20 02:15:08;;;;;;;20.70;18.45;;;14.20;99.90;;;;;;4994285;28;20170;-77
2021/11/20 02:17:40;;;;;;;23.65;18.88;;;14.20;99.90;;;;;;5010516;28;20151;-76
2021/11/20 02:20:31;;;;;;;22.75;18.77;;;14.20;99.90;;;;;;4994400;28;20193;-77
2021/11/20 02:22:57;;;;;;;20.83;18.37;;;14.20;99.90;;;;;;4993924;28;20570;-77
2021/11/20 02:25:23;;;;;;;22.38;18.67;;;14.20;99.90;;;;;;5010455;28;20597;-77
2021/11/20 02:28:03;;;;;;;23.23;17.60;;;14.20;99.90;;;;;;5009754;28;20170;-78
2021/11/20 02:30:31;;;;;;;21.23;18.27;;;14.20;99.90;;;;;;4994127;28;21222;-78
2021/11/20 02:33:03;;;;;;;20.83;18.38;;;14.20;99.90;;;;;;5010647;28;20711;-78
2021/11/20 02:35:55;;;;;;;22.17;19.67;;;14.20;99.90;;;;;;4979968;28;20237;-77
2021/11/20 02:38:26;;;;;;;24.07;18.10;;;14.20;99.90;;;;;;4994714;28;20608;-77
2021/11/20 02:40:53;;;;;;;23.17;18.70;;;14.20;99.90;;;;;;4994167;28;20577;-76
2021/11/20 02:43:21;;;;;;;20.93;17.40;;;14.20;99.90;;;;;;5010754;28;20619;-77
2021/11/20 02:45:58;;;;;;;21.02;18.20;;;14.20;99.90;;;;;;4979430;28;21096;-76
2021/11/20 02:48:26;;;;;;;21.63;17.60;;;14.20;99.90;;;;;;5016636;28;20517;-77
2021/11/20 02:51:09;;;;;;;23.45;20.05;;;14.20;99.90;;;;;;4994132;28;20747;-77
2021/11/20 02:53:44;;;;;;;20.03;17.33;;;14.20;99.90;;;;;;4977904;28;20173;-77
2021/11/20 02:56:14;;;;;;;21.60;18.07;;;14.20;99.90;;;;;;4993320;28;20600;-77
2021/11/20 02:58:41;;;;;;;22.90;18.47;;;14.20;99.90;;;;;;4994460;28;20581;-77
2021/11/20 03:01:15;;;;;;;20.17;17.87;;;14.20;99.90;;;;;;5011691;28;20696;-77
2021/11/20 03:03:41;;;;;;;22.50;17.60;;;14.20;99.90;;;;;;4978621;28;20610;-77
2021/11/20 03:06:07;;;;;;;21.67;16.70;;;14.20;99.90;;;;;;5010030;28;20621;-77
2021/11/20 03:08:34;;;;;;;21.03;17.40;;;14.20;99.90;;;;;;4977687;28;20182;-77
2021/11/20 03:11:07;;;;;;;19.37;16.73;;;14.20;99.90;;;;;;4978784;28;20674;-77
2021/11/20 03:13:36;;;;;;;24.30;18.00;;;14.20;99.90;;;;;;4993761;28;20584;-77
2021/11/20 03:16:04;;;;;;;22.20;18.10;;;14.20;99.90;;;;;;5010036;28;20968;-77
2021/11/20 03:18:30;;;;;;;24.10;18.08;;;14.20;99.90;;;;;;4993703;28;20569;-77
2021/11/20 03:20:56;;;;;;;23.80;18.05;;;14.20;99.90;;;;;;5010411;28;20213;-78
2021/11/20 03:23:32;;;;;;;23.87;18.13;;;14.20;99.90;;;;;;5012651;28;20281;-77
2021/11/20 03:25:58;;;;;;;21.63;17.73;;;14.20;99.90;;;;;;5013576;28;20551;-78
2021/11/20 03:28:24;;;;;;;21.10;17.37;;;14.20;99.90;;;;;;5010096;28;20170;-78
2021/11/20 03:30:51;;;;;;;19.77;16.83;;;14.20;99.90;;;;;;4993740;28;20698;-77
2021/11/20 03:33:19;;;;;;;26.50;19.67;;;14.20;99.90;;;;;;5009458;28;21132;-77
2021/11/20 03:35:46;;;;;;;22.60;17.00;;;14.20;99.90;;;;;;5013195;28;20955;-77
2021/11/20 03:38:21;;;;;;;25.60;18.80;;;14.20;99.90;;;;;;4997374;28;20573;-77
2021/11/20 03:40:48;;;;;;;22.57;16.60;;;14.20;99.90;;;;;;4997377;28;20597;-77
2021/11/20 03:43:14;;;;;;;23.87;18.00;;;14.20;99.90;;;;;;4996889;28;20588;-77
2021/11/20 03:45:41;;;;;;;22.00;17.80;;;14.20;99.90;;;;;;4997233;28;20665;-77
2021/11/20 03:48:09;;;;;;;18.17;16.23;;;14.20;99.90;;;;;;4996899;28;20580;-77
2021/11/20 03:50:36;;;;;;;22.37;17.27;;;14.20;99.90;;;;;;4997153;28;20628;-77
2021/11/20 03:53:03;;;;;;;20.83;16.63;;;14.20;99.90;;;;;;4980616;28;20592;-78
2021/11/20 03:55:35;;;;;;;23.53;17.87;;;14.20;99.90;;;;;;4996760;28;20615;-77
2021/11/20 03:58:02;;;;;;;22.07;18.20;;;14.10;99.90;;;;;;4997267;28;20597;-76
2021/11/20 04:00:32;;;;;;;19.77;16.33;;;14.10;99.90;;;;;;5014952;28;20667;-77
2021/11/20 04:03:00;;;;;;;19.00;16.80;;;14.10;99.90;;;;;;5001881;28;20691;-77
2021/11/20 04:05:30;;;;;;;18.97;15.80;;;14.10;99.90;;;;;;4997198;28;20628;-77
2021/11/20 04:07:56;;;;;;;21.20;16.88;;;14.10;99.90;;;;;;4993453;28;20577;-76
2021/11/20 04:10:22;;;;;;;21.10;17.20;;;14.10;99.90;;;;;;4997521;28;20204;-77
2021/11/20 04:12:48;;;;;;;22.70;17.30;;;14.10;99.90;;;;;;5001607;28;20613;-76
2021/11/20 04:15:19;;;;;;;20.13;15.93;;;14.10;99.90;;;;;;5001029;28;20600;-77
2021/11/20 04:17:44;;;;;;;20.43;15.47;;;14.00;99.90;;;;;;5016986;28;20933;-77
2021/11/20 04:20:14;;;;;;;18.40;15.00;;;14.00;99.90;;;;;;5002152;28;20580;-76
2021/11/20 04:22:41;;;;;;;19.77;16.00;;;14.00;99.90;;;;;;4998100;28;20564;-77
2021/11/20 04:25:08;;;;;;;20.13;17.43;;;14.00;99.90;;;;;;4996872;28;20577;-77
2021/11/20 04:27:47;;;;;;;19.60;16.67;;;14.00;99.90;;;;;;5012899;28;20565;-76
2021/11/20 04:30:21;;;;;;;19.13;16.13;;;14.00;99.90;;;;;;5013221;28;20652;-77
2021/11/20 04:32:49;;;;;;;19.37;14.93;;;14.00;99.90;;;;;;4996467;28;20584;-77
2021/11/20 04:35:16;;;;;;;18.90;15.90;;;14.00;99.90;;;;;;5012927;28;21144;-77
2021/11/20 04:37:42;;;;;;;21.20;17.17;;;14.00;99.90;;;;;;5014691;28;20670;-77
2021/11/20 04:40:10;;;;;;;19.70;15.80;;;14.00;99.90;;;;;;5002322;28;20679;-77
2021/11/20 04:42:36;;;;;;;18.77;16.30;;;14.00;99.90;;;;;;4979589;28;20974;-76
2021/11/20 04:45:04;;;;;;;18.23;15.70;;;14.00;99.90;;;;;;4996905;28;20577;-77
2021/11/20 04:47:30;;;;;;;18.07;15.50;;;14.00;99.90;;;;;;5010841;28;20693;-77
2021/11/20 04:49:55;;;;;;;19.67;16.07;;;14.00;99.90;;;;;;4996026;28;20723;-78
2021/11/20 04:52:21;;;;;;;18.00;15.37;;;14.00;99.90;;;;;;4995618;28;20170;-78
2021/11/20 04:54:47;;;;;;;19.37;15.53;;;14.00;99.90;;;;;;4979490;28;20178;-78
2021/11/20 04:57:13;;;;;;;19.50;16.43;;;14.00;99.90;;;;;;4978996;28;20190;-78
2021/11/20 04:59:39;;;;;;;21.47;16.77;;;14.00;99.90;;;;;;5012112;28;20664;-78
2021/11/20 05:02:07;;;;;;;20.77;16.53;;;14.00;99.90;;;;;;4995902;28;20209;-76
2021/11/20 05:04:34;;;;;;;18.80;14.43;;;14.00;99.90;;;;;;4995737;28;20655;-76
2021/11/20 05:07:00;;;;;;;17.43;14.50;;;14.00;99.90;;;;;;4994999;28;20625;-76
2021/11/20 05:09:29;;;;;;;21.23;15.90;;;14.00;99.90;;;;;;4995730;28;20687;-78
2021/11/20 05:11:55;;;;;;;16.87;14.10;;;14.00;99.90;;;;;;4996338;28;20576;-77
2021/11/20 05:14:21;;;;;;;16.80;14.50;;;14.00;99.90;;;;;;5012482;28;20586;-77
2021/11/20 05:16:51;;;;;;;16.10;13.53;;;14.00;99.90;;;;;;4997690;28;20605;-77
2021/11/20 05:19:18;;;;;;;17.50;14.07;;;14.00;99.90;;;;;;4995519;28;20585;-77
2021/11/20 05:21:46;;;;;;;17.07;15.27;;;14.00;99.90;;;;;;4995375;28;20577;-77
2021/11/20 05:24:15;;;;;;;15.83;13.97;;;14.00;99.90;;;;;;4995086;28;20581;-77
2021/11/20 05:26:41;;;;;;;16.40;14.37;;;14.00;99.90;;;;;;4994868;28;20609;-78
2021/11/20 05:29:14;;;;;;;15.70;14.00;;;14.00;99.90;;;;;;4995077;28;20596;-77
2021/11/20 05:31:49;;;;;;;16.30;14.47;;;14.00;99.90;;;;;;4979183;28;20589;-77
2021/11/20 05:34:15;;;;;;;18.23;13.70;;;14.00;99.90;;;;;;4994947;28;20581;-77
2021/11/20 05:36:41;;;;;;;16.00;14.30;;;14.00;99.90;;;;;;4978431;28;20678;-77
2021/11/20 05:39:13;;;;;;;18.40;15.90;;;14.00;99.90;;;;;;5011459;28;21120;-77
2021/11/20 05:41:41;;;;;;;16.73;14.90;;;13.90;99.90;;;;;;4979235;28;20589;-77
2021/11/20 05:44:12;;;;;;;17.27;15.17;;;14.00;99.90;;;;;;4994569;28;20719;-77
2021/11/20 05:46:48;;;;;;;16.80;15.00;;;14.00;99.90;;;;;;4994921;28;21168;-77
2021/11/20 05:49:14;;;;;;;17.67;15.07;;;14.00;99.90;;;;;;4994837;28;20566;-77
2021/11/20 05:51:40;;;;;;;18.50;14.17;;;14.00;99.90;;;;;;4996227;28;21167;-77
2021/11/20 05:54:10;;;;;;;18.13;14.70;;;13.90;99.90;;;;;;5014410;28;20601;-78
2021/11/20 05:56:37;;;;;;;17.97;14.07;;;14.00;99.90;;;;;;4994417;28;20664;-78
2021/11/20 05:59:04;;;;;;;17.43;14.53;;;14.00;99.90;;;;;;5010993;28;20600;-78
2021/11/20 06:01:32;;;;;;;16.45;13.73;;;14.00;99.90;;;;;;5011245;28;20574;-78
2021/11/20 06:03:58;;;;;;;15.83;14.10;;;14.00;99.90;;;;;;4994359;28;20579;-78
2021/11/20 06:06:26;;;;;;;15.70;13.60;;;14.00;99.90;;;;;;5010309;28;21065;-78
2021/11/20 06:08:52;;;;;;;19.03;14.60;;;14.00;99.90;;;;;;5011143;28;20982;-78
2021/11/20 06:11:19;;;;;;;18.50;14.57;;;14.00;99.90;;;;;;5011855;28;20616;-78
2021/11/20 06:13:46;;;;;;;18.05;14.95;;;14.00;99.90;;;;;;4994406;28;20216;-78
2021/11/20 06:16:24;;;;;;;18.92;16.05;;;14.00;99.90;;;;;;4977905;28;20281;-78
2021/11/20 06:18:50;;;;;;;18.57;14.40;;;14.00;99.90;;;;;;5010695;28;20167;-78
2021/11/20 06:21:17;;;;;;;19.10;16.17;;;14.00;99.90;;;;;;4994226;28;20676;-78
2021/11/20 06:23:45;;;;;;;16.00;14.17;;;14.00;99.90;;;;;;4979018;28;20962;-78
2021/11/20 06:26:13;;;;;;;18.33;14.43;;;14.00;99.90;;;;;;4994307;28;20601;-78
2021/11/20 06:28:39;;;;;;;16.33;14.63;;;14.00;99.90;;;;;;4979457;28;20987;-78
2021/11/20 06:31:11;;;;;;;17.20;13.33;;;14.00;99.90;;;;;;5013268;28;20656;-78
2021/11/20 06:33:41;;;;;;;16.33;14.23;;;14.00;99.90;;;;;;5010407;28;20573;-78
2021/11/20 06:36:36;;;;;;;15.67;13.33;;;14.00;99.90;;;;;;5010298;28;20660;-78
2021/11/20 06:39:12;;;;;;;14.37;12.80;;;14.00;99.90;;;;;;4994222;28;20580;-78
2021/11/20 06:41:42;;;;;;;15.30;13.40;;;14.00;99.90;;;;;;4994151;28;21165;-78
2021/11/20 06:44:08;;;;;;;14.07;12.60;;;13.90;99.90;;;;;;4977683;28;20170;-78
2021/11/20 06:46:35;;;;;;;15.60;13.47;;;13.90;99.90;;;;;;4993441;28;20628;-78
2021/11/20 06:49:02;;;;;;;15.10;13.50;;;13.90;99.90;;;;;;4993844;28;21092;-78
2021/11/20 06:51:31;;;;;;;15.23;13.40;;;13.90;99.90;;;;;;4994163;28;20577;-78
2021/11/20 06:54:29;;;;;;;16.00;12.97;;;13.90;99.90;;;;;;4955703;28;20597;-77
2021/11/20 06:57:14;;;;;;;15.03;13.47;;;13.80;99.90;;;;;;4992748;28;20633;-78
2021/11/20 07:00:27;;;;;;;15.83;13.40;;;13.80;99.90;;;;;;4987849;28;20577;-77
2021/11/20 07:03:32;;;;;;;16.47;13.40;;;13.80;99.90;;;;;;5007211;28;20589;-77
2021/11/20 07:06:32;;;;;;;14.83;12.90;;;13.80;99.90;;;;;;4995002;28;20634;-77
2021/11/20 07:08:59;;;;;;;17.90;13.80;;;13.80;99.90;;;;;;4994043;28;20620;-80
2021/11/20 07:11:26;;;;;;;18.13;14.27;;;13.80;99.90;;;;;;5015626;28;20660;-77
2021/11/20 07:13:52;;;;;;;17.43;13.60;;;13.90;99.90;;;;;;5015416;28;20577;-77
2021/11/20 07:16:22;;;;;;;16.87;13.23;;;13.80;99.90;;;;;;4997587;28;20962;-77
2021/11/20 07:18:49;;;;;;;15.63;13.10;;;13.80;99.90;;;;;;5016007;28;20584;-76
2021/11/20 07:21:39;;;;;;;16.80;13.15;;;13.90;99.90;;;;;;5007931;28;20636;-77
2021/11/20 07:24:15;;;;;;;17.27;13.50;;;13.90;99.90;;;;;;4997952;28;20186;-77
2021/11/20 07:26:42;;;;;;;16.17;13.37;;;13.80;99.90;;;;;;4998151;28;20600;-76
2021/11/20 07:29:09;;;;;;;15.03;13.43;;;13.80;99.90;;;;;;5016150;28;20593;-77
2021/11/20 07:31:51;;;;;;;15.07;12.70;;;13.80;99.90;;;;;;4998847;28;20609;-76
2021/11/20 07:34:18;;;;;;;16.50;13.07;;;13.80;99.90;;;;;;4983156;28;20181;-76
2021/11/20 07:36:46;;;;;;;14.97;12.83;;;13.80;99.90;;;;;;4998958;28;20640;-79
2021/11/20 07:39:14;;;;;;;16.77;13.37;;;13.90;99.90;;;;;;4967095;28;20582;-83
2021/11/20 07:41:41;;;;;;;14.93;13.43;;;13.80;99.90;;;;;;4999148;28;20587;-80
2021/11/20 07:44:09;;;;;;;16.00;12.75;;;13.90;99.90;;;;;;5004982;28;20170;-77
2021/11/20 07:46:36;;;;;;;16.90;13.93;;;13.80;99.90;;;;;;4998438;28;20182;-80
2021/11/20 07:49:05;;;;;;;13.90;12.48;;;13.80;99.90;;;;;;5015920;28;20524;-81
2021/11/20 07:51:36;;;;;;;14.63;12.10;;;13.80;99.90;;;;;;4999167;28;20224;-81
2021/11/20 07:54:05;;;;;;;15.80;13.00;;;13.80;99.90;;;;;;4999165;28;20569;-81
2021/11/20 07:56:41;;;;;;;15.17;13.07;;;13.80;99.90;;;;;;4997504;28;21160;-80
2021/11/20 07:59:12;;;;;;;14.70;13.10;;;13.90;99.90;;;;;;4998126;28;20611;-82
2021/11/20 08:01:39;;;;;;;16.00;13.05;;;13.90;99.90;;;;;;4998535;28;20569;-81
2021/11/20 08:04:06;;;;;;;14.80;13.20;;;13.90;99.90;;;;;;4998287;28;20170;-81
2021/11/20 08:07:07;;;;;;;15.73;13.38;;;13.90;99.90;;;;;;4936114;29;20215;-81
2021/11/20 08:09:39;;;;;;;14.60;12.47;;;13.90;99.90;;;;;;4985857;28;20225;-80
2021/11/20 08:12:24;;;;;;;14.57;12.77;;;13.90;99.90;;;;;;4998273;28;20664;-80
2021/11/20 08:14:56;;;;;;;14.03;12.47;;;13.90;99.90;;;;;;4982068;28;20612;-80
2021/11/20 08:17:41;;;;;;;14.30;11.77;;;14.00;99.90;;;;;;5014371;28;20636;-78
2021/11/20 08:20:34;;;;;;;16.13;13.53;;;14.00;99.90;;;;;;5000110;28;20926;-77
2021/11/20 08:23:13;;;;;;;15.27;13.67;;;14.00;99.90;;;;;;4996941;28;21053;-77
2021/11/20 08:25:42;;;;;;;16.10;13.60;;;14.00;99.90;;;;;;4997034;28;21161;-77
2021/11/20 08:28:12;;;;;;;14.60;12.90;;;14.00;99.90;;;;;;4995589;28;20580;-78
2021/11/20 08:30:41;;;;;;;15.13;13.43;;;14.00;99.90;;;;;;4980948;28;20727;-78
2021/11/20 08:33:07;;;;;;;15.13;13.37;;;14.00;99.90;;;;;;4996567;28;20294;-78
2021/11/20 08:35:55;;;;;;;15.63;12.17;;;14.00;99.90;;;;;;5012615;28;20639;-77
2021/11/20 08:38:33;;;;;;;17.20;13.67;;;14.00;99.90;;;;;;4996746;28;20573;-77
2021/11/20 08:41:07;;;;;;;18.60;13.80;;;14.10;99.90;;;;;;4996506;28;20577;-78
2021/11/20 08:43:38;;;;;;;15.17;13.57;;;14.10;99.90;;;;;;4996610;28;20565;-77
2021/11/20 08:46:37;;;;;;;15.67;13.37;;;14.10;99.90;;;;;;5000437;28;21000;-78
2021/11/20 08:49:04;;;;;;;14.27;12.53;;;14.10;99.90;;;;;;4980617;28;20577;-78
2021/11/20 08:51:32;;;;;;;14.40;12.83;;;14.10;99.90;;;;;;4997690;28;20954;-78
2021/11/20 08:54:01;;;;;;;15.17;13.20;;;14.20;99.90;;;;;;4997132;28;20902;-78
2021/11/20 08:56:28;;;;;;;14.05;12.40;;;14.20;99.90;;;;;;5014516;28;20597;-77
2021/11/20 08:59:00;;;;;;;17.50;13.23;;;14.20;99.90;;;;;;5003173;28;20174;-77
2021/11/20 09:01:57;;;;;;;16.33;12.87;;;14.20;99.90;;;;;;5004147;28;20584;-77
2021/11/20 09:04:39;;;;;;;18.40;12.18;;;14.20;99.90;;;;;;5014180;28;20565;-76
2021/11/20 09:07:19;;;;;;;18.10;13.30;;;14.30;99.90;;;;;;5016060;28;20230;-76
2021/11/20 09:10:19;;;;;;;16.73;12.80;;;14.30;99.90;;;;;;5016638;28;20624;-76
2021/11/20 09:12:57;;;;;;;19.83;14.27;;;14.30;99.90;;;;;;5012066;28;20585;-77
2021/11/20 09:15:49;;;;;;;17.03;13.40;;;14.30;99.90;;;;;;5015893;28;20609;-76
2021/11/20 09:18:24;;;;;;;16.83;12.60;;;14.30;99.90;;;;;;4994438;28;20593;-76
2021/11/20 09:20:52;;;;;;;15.77;13.23;;;14.40;99.90;;;;;;4980256;28;20979;-76
2021/11/20 09:23:50;;;;;;;15.90;13.57;;;14.40;99.90;;;;;;5004261;28;20605;-76
2021/11/20 09:26:46;;;;;;;16.50;13.30;;;14.40;99.90;;;;;;4982839;28;21217;-76
2021/11/20 09:29:15;;;;;;;15.53;12.33;;;14.40;99.90;;;;;;4996116;28;20581;-75
2021/11/20 09:31:45;;;;;;;16.70;13.60;;;14.50;99.90;;;;;;4996087;28;20573;-76
2021/11/20 09:34:13;;;;;;;16.27;14.33;;;14.50;99.90;;;;;;4994900;28;20170;-77
2021/11/20 09:36:45;;;;;;;15.10;13.37;;;14.50;99.90;;;;;;4981578;28;21247;-75
2021/11/20 09:39:38;;;;;;;15.37;12.67;;;14.50;99.90;;;;;;4995091;28;20681;-77
2021/11/20 09:42:32;;;;;;;16.50;13.93;;;14.60;99.90;;;;;;4995478;28;20612;-77
2021/11/20 09:45:16;;;;;;;14.07;12.60;;;14.60;99.90;;;;;;4995105;28;20739;-78
2021/11/20 09:48:07;;;;;;;15.60;13.60;;;14.60;99.90;;;;;;4995164;28;20573;-79
2021/11/20 09:50:42;;;;;;;14.40;12.40;;;14.60;99.90;;;;;;4995583;28;20624;-79
2021/11/20 09:53:10;;;;;;;14.90;12.17;;;14.70;99.90;;;;;;4995427;28;21208;-80
2021/11/20 09:55:43;;;;;;;12.70;11.23;;;14.70;99.90;;;;;;5012642;28;21183;-80
2021/11/20 09:58:14;;;;;;;14.47;11.60;;;14.70;99.90;;;;;;5012960;28;20581;-80
2021/11/20 10:01:13;;;;;;;14.20;12.53;;;14.70;99.90;;;;;;5012819;28;20600;-80
2021/11/20 10:04:08;;;;;;;13.40;11.60;;;14.70;99.90;;;;;;5012862;28;20577;-79
2021/11/20 10:06:44;;;;;;;11.67;10.13;;;14.70;99.90;;;;;;4991609;28;21057;-79
2021/11/20 10:09:19;;;;;;;13.27;11.30;;;14.80;99.90;;;;;;5012832;28;20591;-79
2021/11/20 10:12:09;;;;;;;13.50;11.20;;;14.80;99.90;;;;;;5014658;28;20998;-79
2021/11/20 10:14:47;;;;;;;15.37;12.80;;;14.80;99.90;;;;;;4979430;28;20585;-80
2021/11/20 10:17:33;;;;;;;14.60;11.27;;;14.80;99.90;;;;;;4994159;28;20633;-77
2021/11/20 10:20:21;;;;;;;13.93;11.40;;;14.80;99.90;;;;;;5012525;28;20574;-77
2021/11/20 10:23:10;;;;;;;12.63;10.70;;;14.80;99.90;;;;;;4994198;28;20631;-79
2021/11/20 10:25:48;;;;;;;15.53;12.50;;;14.80;99.90;;;;;;5012093;28;20691;-79
2021/11/20 10:28:48;;;;;;;15.20;11.57;;;14.80;99.90;;;;;;5012280;28;20612;-79
2021/11/20 10:31:24;;;;;;;14.10;12.60;;;14.80;99.90;;;;;;5011499;28;20740;-77
2021/11/20 10:33:58;;;;;;;14.40;12.87;;;14.70;99.90;;;;;;5011607;28;20189;-79
2021/11/20 10:36:50;;;;;;;17.90;16.00;;;14.70;99.90;;;;;;4993005;28;20762;-77
2021/11/20 10:39:25;;;;;;;15.70;12.83;;;14.60;99.90;;;;;;5011942;28;20174;-79
2021/11/20 10:42:09;;;;;;;13.10;11.80;;;14.70;99.90;;;;;;4994047;28;20928;-79
2021/11/20 10:44:39;;;;;;;18.08;16.17;;;14.70;99.90;;;;;;5010041;28;20711;-77
2021/11/20 10:47:06;;;;;;;13.30;11.70;;;14.70;99.90;;;;;;4993935;28;20224;-77
2021/11/20 10:49:52;;;;;;;13.93;11.83;;;14.70;99.90;;;;;;5016034;28;20675;-77
2021/11/20 10:52:52;;;;;;;14.13;12.73;;;14.80;99.90;;;;;;5011468;28;20576;-77
2021/11/20 10:55:30;;;;;;;11.90;10.70;;;14.80;99.90;;;;;;5011694;28;20566;-77
2021/11/20 10:58:14;;;;;;;14.13;11.77;;;14.90;99.90;;;;;;5011160;28;20557;-79
2021/11/20 11:00:55;;;;;;;19.50;16.80;;;14.90;99.90;;;;;;5010555;28;20798;-77
2021/11/20 11:03:38;;;;;;;13.70;12.20;;;14.70;99.90;;;;;;5011241;28;20576;-77
2021/11/20 11:06:32;;;;;;;13.03;11.73;;;14.80;99.90;;;;;;4977317;28;20736;-77
2021/11/20 11:08:58;;;;;;;15.00;13.40;;;14.90;99.90;;;;;;5010862;28;20735;-80
2021/11/20 11:11:41;;;;;;;13.13;11.73;;;14.80;99.90;;;;;;4994678;28;20580;-79
2021/11/20 11:14:46;;;;;;;13.20;11.83;;;14.90;99.90;;;;;;5011454;28;20565;-79
2021/11/20 11:17:49;;;;;;;12.60;11.30;;;14.90;99.90;;;;;;4994012;28;20646;-78
2021/11/20 11:20:29;;;;;;;16.48;14.77;;;15.00;99.90;;;;;;5010966;28;20688;-78
2021/11/20 11:23:14;;;;;;;15.13;13.53;;;14.90;99.90;;;;;;4993652;28;20700;-75
2021/11/20 11:26:00;;;;;;;17.73;12.30;;;14.90;99.90;;;;;;4978772;28;20609;-76
2021/11/20 11:28:48;;;;;;;10.70;9.60;;;15.00;99.90;;;;;;5014349;28;20611;-78
2021/11/20 11:31:22;;;;;;;12.40;10.60;;;15.00;99.90;;;;;;5011946;28;20617;-76
2021/11/20 11:33:55;;;;;;;16.03;10.77;;;15.00;99.90;;;;;;5011556;28;20573;-76
2021/11/20 11:36:31;;;;;;;11.70;10.50;;;15.00;99.90;;;;;;5011623;28;20635;-77
2021/11/20 11:39:23;;;;;;;10.87;9.27;;;15.00;99.90;;;;;;4991913;28;20667;-76
2021/11/20 11:42:29;;;;;;;15.40;11.97;;;15.00;99.90;;;;;;5004426;28;20597;-74
2021/11/20 11:45:03;;;;;;;13.47;11.73;;;14.90;99.90;;;;;;5010973;28;20934;-75
2021/11/20 11:47:51;;;;;;;13.20;10.90;;;14.90;99.90;;;;;;4993275;28;20572;-75
2021/11/20 11:50:44;;;;;;;13.30;11.23;;;14.90;99.90;;;;;;4992835;28;20621;-76
2021/11/20 11:53:27;;;;;;;12.13;10.80;;;14.90;99.90;;;;;;5012540;28;20808;-75
2021/11/20 11:56:23;;;;;;;13.00;11.60;;;14.90;99.90;;;;;;5011285;28;20711;-75
2021/11/20 11:59:10;;;;;;;16.60;14.90;;;14.90;99.90;;;;;;5013441;28;20712;-75
2021/11/20 12:01:42;;;;;;;10.67;9.57;;;14.70;99.90;;;;;;4996913;28;20178;-76
2021/11/20 12:04:17;;;;;;;13.93;11.80;;;14.80;99.90;;;;;;4985150;28;20605;-75
2021/11/20 12:07:01;;;;;;;12.40;11.00;;;14.90;99.90;;;;;;4996214;28;20671;-77
2021/11/20 12:09:32;;;;;;;15.90;14.20;;;14.90;99.90;;;;;;5017004;28;20700;-78
2021/11/20 12:12:12;;;;;;;11.93;10.73;;;14.90;99.90;;;;;;4999369;28;20569;-78
2021/11/20 12:14:44;;;;;;;14.90;10.57;;;14.90;99.90;;;;;;5007589;28;21377;-79
2021/11/20 12:17:44;;;;;;;11.63;10.43;;;15.00;99.90;;;;;;4996722;28;20701;-79
2021/11/20 12:20:39;;;;;;;11.07;9.87;;;15.00;99.90;;;;;;4993322;28;20774;-78
2021/11/20 12:23:12;;;;;;;13.17;10.90;;;15.00;99.90;;;;;;4962036;28;21160;-78
2021/11/20 12:26:19;;;;;;;12.13;9.70;;;15.00;99.90;;;;;;5003647;28;20637;-79
2021/11/20 12:28:51;;;;;;;11.07;9.83;;;14.90;99.90;;;;;;4972302;28;20593;-76
2021/11/20 12:31:28;;;;;;;12.87;11.67;;;15.00;99.90;;;;;;5013499;28;20620;-76
2021/11/20 12:34:00;;;;;;;12.10;10.20;;;15.00;99.90;;;;;;4996171;28;20565;-77
2021/11/20 12:37:03;;;;;;;13.20;10.80;;;15.00;99.90;;;;;;5013347;28;20605;-77
2021/11/20 12:40:03;;;;;;;9.07;8.13;;;14.90;99.90;;;;;;5014166;28;20604;-76
2021/11/20 12:42:57;;;;;;;11.10;9.60;;;14.90;99.90;;;;;;4983223;28;20562;-76
2021/11/20 12:45:58;;;;;;;11.17;10.07;;;14.90;99.90;;;;;;4996034;28;20655;-76
2021/11/20 12:48:45;;;;;;;12.83;10.70;;;14.80;99.90;;;;;;5011992;28;20585;-76
2021/11/20 12:51:17;;;;;;;11.73;10.10;;;14.80;99.90;;;;;;4995902;28;20995;-76
2021/11/20 12:53:58;;;;;;;11.90;9.87;;;14.80;99.90;;;;;;5014756;28;20979;-77
2021/11/20 12:56:33;;;;;;;12.10;10.80;;;14.80;99.90;;;;;;4995960;28;20601;-76
2021/11/20 12:59:20;;;;;;;11.87;10.20;;;14.80;99.90;;;;;;5012194;28;20569;-76
2021/11/20 13:02:04;;;;;;;11.67;9.87;;;14.70;99.90;;;;;;5012952;28;20577;-75
2021/11/20 13:04:43;;;;;;;11.63;10.43;;;14.80;99.90;;;;;;5013142;28;21016;-76
2021/11/20 13:07:14;;;;;;;10.80;9.40;;;14.80;99.90;;;;;;4977983;28;20652;-76
2021/11/20 13:09:53;;;;;;;11.90;10.50;;;14.80;99.90;;;;;;4995894;28;20625;-77